Latest Weather Observations for Marble Bar

IDW60801

Issued at 3:32 pm WST Sunday 30 August 2015 (issued every 30 minutes, with the page automatically refreshed every 10 minutes)

About weather observations | Map of weather stations | Latest weather observations for WA | Other Formats
Station Details ID: 004106 Name: MARBLE BAR Lat: -21.18 Lon: 119.75 Height: 182.3 m
Data from the previous 72 hours. | See also: Recent months at Marble Bar
Date/Time
WST
Temp
°C
App
Temp
°C
Dew
Point
Rel
Hum
%
Delta-T
°C
Wind Press
QNH
hPa
Press
MSL
hPa
Rain
since 9 am
mm
Dir
 
Spd
km/h
Gust
km/h
Spd
kts
Gust
kts
30/03:30pm 30.8 28.0 3.0 17 14.2 NNW 7 13 4 7 1013.9 1013.2 0.0
30/03:00pm 30.8 27.6 3.0 17 14.2 NNW 9 19 5 10 1014.1 1013.4 0.0
30/02:30pm 30.8 28.2 6.0 21 13.3 W 9 15 5 8 1014.3 1013.6 0.0
30/02:00pm 30.6 28.7 6.5 22 13.0 WSW 6 13 3 7 1014.6 1013.9 0.0
30/01:30pm 29.9 28.3 7.8 25 12.1 S 6 20 3 11 1014.9 1014.3 0.0
30/01:00pm 29.5 27.6 9.1 28 11.4 SSE 9 20 5 11 1015.2 1014.6 0.0
30/12:30pm 28.5 26.5 8.7 29 11.0 SSW 9 17 5 9 1015.8 1015.2 0.0
30/12:00pm 27.9 26.6 9.2 31 10.4 ENE 6 13 3 7 1016.3 1015.7 0.0
30/11:30am 27.6 26.4 10.3 34 9.8 E 7 15 4 8 1016.9 1016.3 0.0
30/11:00am 27.4 26.0 11.0 36 9.4 SE 9 13 5 7 1017.5 1016.9 0.0
30/10:30am 26.1 25.5 12.2 42 8.1 ESE 7 17 4 9 1018.0 1017.3 0.0
30/10:00am 25.2 25.5 13.4 48 6.9 WSW 4 7 2 4 1018.3 1017.6 0.0
30/09:30am 24.0 24.4 13.8 53 6.0 ENE 4 7 2 4 1018.3 1017.6 0.0
30/09:00am 23.1 23.9 14.7 59 5.0 ENE 4 7 2 4 1018.1 1017.4 0.0
30/08:30am 22.1 22.6 15.0 64 4.2 ENE 6 7 3 4 1018.1 1017.4 0.0
30/08:00am 21.0 22.3 15.1 69 3.5 S 2 4 1 2 1017.9 1017.2 0.0
30/07:30am 20.2 21.5 15.2 73 3.0 SSW 2 7 1 4 1017.5 1016.9 0.0
30/07:00am 19.2 20.9 15.1 77 2.4 CALM 0 2 0 1 1017.2 1016.6 0.0
30/06:30am 19.0 20.0 15.3 79 2.2 SW 4 6 2 3 1016.8 1016.2 0.0
30/06:00am 19.1 19.5 15.4 79 2.2 WSW 7 17 4 9 1016.5 1015.9 0.0
30/05:30am 18.8 19.5 15.7 82 1.8 W 6 9 3 5 1016.2 1015.6 0.0
30/05:00am 18.6 20.1 15.7 83 1.7 SW 2 4 1 2 1016.0 1015.4 0.0
30/04:30am 18.4 19.1 15.6 84 1.7 WNW 6 11 3 6 1015.9 1015.3 0.0
30/04:00am 16.8 18.4 14.8 88 1.2 CALM 0 4 0 2 1015.8 1015.2 0.0
30/03:30am 15.2 16.1 12.9 86 1.3 CALM 0 0 0 0 1015.8 1015.2 0.0
30/03:00am 16.3 17.6 14.1 87 1.3 CALM 0 0 0 0 1015.8 1015.2 0.0
30/02:30am 17.1 18.6 14.6 85 1.5 CALM 0 0 0 0 1015.8 1015.2 0.0
30/02:00am 18.0 18.8 14.9 82 1.8 WNW 4 9 2 5 1015.9 1015.3 0.0
30/01:30am 18.2 18.6 14.7 80 2.0 WNW 6 9 3 5 1016.1 1015.5 0.0
30/01:00am 18.5 18.8 14.6 78 2.3 WNW 6 11 3 6 1016.2 1015.6 0.0
30/12:30am 19.2 19.4 14.7 75 2.6 NW 7 13 4 7 1016.4 1015.8 0.0
30/12:00am 19.1 19.3 14.6 75 2.6 WNW 7 13 4 7 1016.6 1016.0 0.0
 
Date/Time
WST
Temp
°C
App
Temp
°C
Dew
Point
Rel
Hum
%
Delta-T
°C
Wind Press
QNH
hPa
Press
MSL
hPa
Rain
since 9 am
mm
Dir
 
Spd
km/h
Gust
km/h
Spd
kts
Gust
kts
29/11:30pm 19.5 19.0 13.7 69 3.3 WNW 9 17 5 9 1016.6 1016.0 0.0
29/11:00pm 20.0 19.3 13.2 65 3.9 NW 9 20 5 11 1016.6 1016.0 0.0
29/10:30pm 20.7 19.2 11.9 57 4.9 NW 11 20 6 11 1016.8 1016.2 0.0
29/10:00pm 21.3 19.6 12.4 57 5.1 NW 13 17 7 9 1016.6 1016.0 0.0
29/09:30pm 21.8 20.9 12.6 56 5.3 NNW 9 15 5 8 1016.8 1016.2 0.0
29/09:00pm 22.6 20.9 12.3 52 5.9 NW 13 17 7 9 1016.5 1015.9 0.0
29/08:30pm 23.4 21.2 12.1 49 6.5 NNW 15 20 8 11 1016.3 1015.7 0.0
29/08:00pm 24.2 22.0 12.2 47 6.9 NW 15 22 8 12 1016.0 1015.4 0.0
29/07:30pm 25.0 23.4 11.6 43 7.7 NW 11 17 6 9 1015.5 1014.9 0.0
29/07:00pm 25.9 24.1 10.9 39 8.5 NNW 11 17 6 9 1015.0 1014.4 0.0
29/06:30pm 26.7 24.4 10.4 36 9.2 NNW 13 19 7 10 1014.6 1013.9 0.0
29/06:00pm 27.3 25.4 9.2 32 10.0 NNW 9 15 5 8 1014.3 1013.6 0.0
29/05:30pm 28.4 25.8 9.2 30 10.7 NNW 13 19 7 10 1014.0 1013.3 0.0
29/05:00pm 29.4 27.2 9.5 29 11.2 WNW 11 17 6 9 1013.9 1013.2 0.0
29/04:30pm 29.9 27.0 8.3 26 12.0 NW 13 19 7 10 1013.7 1013.0 0.0
29/04:00pm 30.3 28.2 9.8 28 11.7 WNW 11 20 6 11 1013.6 1012.9 0.0
29/03:30pm 30.3 26.9 9.2 27 11.9 NNW 17 28 9 15 1013.7 1013.0 0.0
29/03:00pm 30.4 27.6 8.7 26 12.1 NNW 13 22 7 12 1013.9 1013.2 0.0
29/02:30pm 29.9 26.8 8.9 27 11.7 NW 15 24 8 13 1014.2 1013.5 0.0
29/02:00pm 30.2 27.7 9.7 28 11.6 NW 13 22 7 12 1014.6 1013.9 0.0
29/01:30pm 29.1 27.1 10.3 31 10.7 NNW 11 19 6 10 1015.0 1014.4 0.0
29/01:00pm 29.2 27.4 10.8 32 10.6 NNW 11 20 6 11 1015.3 1014.7 0.0
29/12:30pm 28.6 27.8 11.6 34 9.9 NNW 7 13 4 7 1015.8 1015.2 0.0
29/12:00pm 28.0 26.2 10.7 34 9.9 NW 11 19 6 10 1016.3 1015.7 0.0
29/11:30am 27.5 25.9 11.5 37 9.2 NNW 11 20 6 11 1016.8 1016.2 0.0
29/11:00am 26.9 25.8 11.8 39 8.7 NNW 9 20 5 11 1017.4 1016.8 0.0
29/10:30am 26.0 25.2 12.8 44 7.7 N 9 19 5 10 1017.8 1017.1 0.0
29/10:00am 25.1 24.3 13.0 47 7.1 N 9 19 5 10 1018.1 1017.4 0.0
29/09:30am 23.9 23.9 13.7 53 6.0 NW 6 15 3 8 1018.3 1017.6 0.0
29/09:00am 23.2 23.6 14.7 58 5.1 NW 6 9 3 5 1018.2 1017.5 0.0
29/08:30am 21.6 22.4 14.7 65 4.1 NW 4 7 2 4 1017.9 1017.2 0.0
29/08:00am 20.8 22.1 15.1 70 3.4 NNE 2 6 1 3 1017.5 1016.9 0.0
29/07:30am 19.9 21.3 15.3 75 2.7 ENE 2 4 1 2 1017.4 1016.8 0.0
29/07:00am 17.0 17.6 14.3 84 1.6 ENE 4 6 2 3 1017.0 1016.4 0.0
29/06:30am 14.5 15.3 12.5 88 1.1 CALM 0 0 0 0 1016.5 1015.9 0.0
29/06:00am 14.6 15.5 12.8 89 1.0 CALM 0 0 0 0 1016.1 1015.5 0.0
29/05:30am 15.3 16.5 13.7 90 0.9 CALM 0 0 0 0 1015.8 1015.2 0.0
29/05:00am 16.3 17.6 14.0 86 1.3 CALM 0 2 0 1 1015.6 1015.0 0.0
29/04:30am 17.7 18.1 15.3 86 1.4 W 7 9 4 5 1015.5 1014.9 0.0
29/04:00am 17.3 17.4 14.4 83 1.7 WNW 7 9 4 5 1015.5 1014.9 0.0
29/03:30am 17.3 17.2 13.8 80 2.0 W 7 9 4 5 1015.5 1014.9 0.0
29/03:00am 16.4 16.5 12.8 79 2.0 WSW 4 6 2 3 1015.7 1015.1 0.0
29/02:30am 16.9 17.2 13.4 80 2.0 SW 4 6 2 3 1015.7 1015.1 0.0
29/02:00am 17.1 18.1 13.2 78 2.2 CALM 0 0 0 0 1016.0 1015.4 0.0
29/01:30am 17.3 18.1 12.6 74 2.6 CALM 0 0 0 0 1016.1 1015.5 0.0
29/01:00am 18.4 19.6 13.7 74 2.7 CALM 0 2 0 1 1016.2 1015.6 0.0
29/12:30am 19.6 19.6 14.2 71 3.1 W 7 9 4 5 1016.5 1015.9 0.0
29/12:00am 19.6 20.8 13.8 69 3.4 CALM 0 0 0 0 1016.8 1016.2 0.0
 
Date/Time
WST
Temp
°C
App
Temp
°C
Dew
Point
Rel
Hum
%
Delta-T
°C
Wind Press
QNH
hPa
Press
MSL
hPa
Rain
since 9 am
mm
Dir
 
Spd
km/h
Gust
km/h
Spd
kts
Gust
kts
28/11:30pm 20.9 21.1 14.3 66 3.9 WNW 6 9 3 5 1016.8 1016.2 0.0
28/11:00pm 20.9 21.0 13.8 64 4.1 WNW 6 11 3 6 1016.9 1016.3 0.0
28/10:30pm 21.2 21.5 13.4 61 4.5 NNW 4 6 2 3 1016.9 1016.3 0.0
28/10:00pm 22.1 22.5 13.7 59 4.9 NW 4 6 2 3 1017.0 1016.4 0.0
28/09:30pm 23.0 23.1 13.8 56 5.4 NW 6 13 3 7 1016.9 1016.3 0.0
28/09:00pm 23.8 23.7 13.9 54 5.8 NW 7 11 4 6 1016.6 1016.0 0.0
28/08:30pm 24.2 24.1 14.0 53 6.0 NNW 7 11 4 6 1016.5 1015.9 0.0
28/08:00pm 25.0 24.3 14.2 51 6.4 NW 11 17 6 9 1016.1 1015.5 0.0
28/07:30pm 25.8 24.8 14.6 50 6.7 NW 13 19 7 10 1015.6 1015.0 0.0
28/07:00pm 26.7 24.8 14.1 46 7.6 NW 17 26 9 14 1015.3 1014.7 0.0
28/06:30pm 27.7 26.4 13.6 42 8.4 NW 13 22 7 12 1014.8 1014.2 0.0
28/06:00pm 28.8 26.1 7.4 26 11.6 NW 11 17 6 9 1014.2 1013.5 0.0
28/05:30pm 30.1 27.0 7.3 24 12.4 NNW 13 19 7 10 1013.9 1013.2 0.0
28/05:00pm 31.0 27.6 7.5 23 12.9 NNW 15 26 8 14 1013.5 1012.8 0.0
28/04:30pm 32.2 28.9 6.4 20 14.0 NNW 13 26 7 14 1013.3 1012.6 0.0
28/04:00pm 31.9 27.8 6.2 20 13.9 N 17 32 9 17 1013.2 1012.5 0.0
28/03:30pm 32.3 29.0 7.9 22 13.6 NNW 15 22 8 12 1013.2 1012.5 0.0
28/03:00pm 32.8 29.4 7.6 21 14.0 NNW 15 24 8 13 1013.4 1012.7 0.0
28/02:30pm 31.9 28.1 7.5 22 13.5 NNW 17 32 9 17 1013.7 1013.0 0.0
28/02:00pm 32.0 28.9 8.9 24 13.0 N 15 24 8 13 1013.9 1013.2 0.0
28/01:30pm 31.6 28.1 8.6 24 12.9 N 17 28 9 15 1014.4 1013.7 0.0
28/01:00pm 31.3 27.8 8.9 25 12.6 NNE 17 26 9 14 1014.9 1014.3 0.0
28/12:30pm 30.7 27.9 10.1 28 11.8 NNE 15 30 8 16 1015.3 1014.7 0.0
28/12:00pm 30.3 26.6 8.1 25 12.3 NE 17 26 9 14 1015.9 1015.3 0.0
28/11:30am 29.4 26.2 10.0 30 11.0 NNE 17 30 9 16 1016.4 1015.8 0.0
28/11:00am 28.4 25.2 10.1 32 10.3 NE 17 28 9 15 1016.9 1016.3 0.0
28/10:30am 28.2 25.9 9.0 30 10.7 NNE 11 24 6 13 1017.2 1016.6 0.0
28/10:00am 27.0 25.1 8.9 32 10.0 NNE 9 17 5 9 1017.5 1016.9 0.0
28/09:30am 25.9 24.8 8.4 33 9.5 NE 4 9 2 5 1017.8 1017.1 0.0
28/09:00am 24.2 23.9 10.1 41 7.8 E 2 6 1 3 1018.0 1017.3 0.0
28/08:30am 22.7 22.9 10.5 46 6.8 CALM 0 6 0 3 1017.8 1017.1 0.0
28/08:00am 20.7 20.4 10.2 51 5.7 NNW 2 4 1 2 1017.5 1016.9 0.0
28/07:30am 18.8 18.7 9.6 55 4.9 CALM 0 0 0 0 1017.3 1016.7 0.0
28/07:00am 16.6 16.6 9.8 64 3.6 CALM 0 0 0 0 1017.0 1016.4 0.0
28/06:30am 13.8 13.2 9.0 73 2.5 WNW 2 4 1 2 1016.9 1016.3 0.0
28/06:00am 14.0 13.6 8.4 69 2.8 CALM 0 0 0 0 1016.5 1015.9 0.0
28/05:30am 14.1 13.1 8.9 71 2.7 SSE 4 6 2 3 1016.3 1015.7 0.0
28/05:00am 14.2 13.1 8.4 68 2.9 SSE 4 4 2 2 1016.1 1015.5 0.0
28/04:30am 14.1 14.0 9.5 74 2.4 CALM 0 0 0 0 1016.0 1015.4 0.0
28/04:00am 14.5 14.5 9.9 74 2.4 CALM 0 0 0 0 1015.9 1015.3 0.0
28/03:30am 15.3 15.5 10.7 74 2.5 CALM 0 0 0 0 1015.7 1015.1 0.0
28/03:00am 15.2 15.4 10.6 74 2.4 CALM 0 0 0 0 1015.7 1015.1 0.0
28/02:30am 15.8 16.2 11.4 75 2.4 CALM 0 2 0 1 1016.0 1015.4 0.0
28/02:00am 16.0 16.1 10.3 69 3.0 CALM 0 0 0 0 1016.2 1015.6 0.0
28/01:30am 16.5 16.8 11.0 70 3.0 CALM 0 0 0 0 1016.3 1015.7 0.0
28/01:00am 16.8 17.3 11.5 71 2.9 CALM 0 0 0 0 1016.5 1015.9 0.0
28/12:30am 17.5 18.1 11.8 69 3.1 CALM 0 2 0 1 1016.6 1016.0 0.0
28/12:00am 18.5 19.0 12.9 70 3.2 SE 2 4 1 2 1016.8 1016.2 0.0
 
Date/Time
WST
Temp
°C
App
Temp
°C
Dew
Point
Rel
Hum
%
Delta-T
°C
Wind Press
QNH
hPa
Press
MSL
hPa
Rain
since 9 am
mm
Dir
 
Spd
km/h
Gust
km/h
Spd
kts
Gust
kts
27/11:30pm 18.5 18.2 11.3 63 4.0 SW 4 6 2 3 1016.7 1016.1 0.0
27/11:00pm 19.5 19.7 11.8 61 4.3 WSW 2 7 1 4 1016.6 1016.0 0.0
27/10:30pm 20.7 20.6 13.4 63 4.2 W 6 9 3 5 1016.8 1016.2 0.0
27/10:00pm 21.4 21.0 12.5 57 5.1 WNW 6 7 3 4 1016.8 1016.2 0.0
27/09:30pm 21.6 20.1 8.5 43 7.0 W 6 11 3 6 1016.9 1016.3 0.0
27/09:00pm 22.5 20.3 5.4 33 8.6 NW 6 7 3 4 1016.7 1016.1 0.0
27/08:30pm 23.6 21.1 5.0 30 9.4 N 7 9 4 5 1016.7 1016.1 0.0
27/08:00pm 25.3 22.1 5.0 27 10.3 NW 11 20 6 11 1016.2 1015.6 0.0
27/07:30pm 26.0 22.3 4.5 25 10.9 NW 13 20 7 11 1015.9 1015.3 0.0
27/07:00pm 26.7 23.1 3.2 22 11.7 NW 11 15 6 8 1015.3 1014.7 0.0
27/06:30pm 27.1 23.4 2.2 20 12.2 NNW 11 19 6 10 1014.7 1014.1 0.0
27/06:00pm 28.2 25.8 0.0 16 13.4 NE 2 4 1 2 1014.1 1013.4 0.0
27/05:30pm 30.1 26.9 -0.3 14 14.6 NE 6 9 3 5 1013.8 1013.1 0.0
27/05:00pm 30.9 26.3 -0.7 13 15.1 NE 13 20 7 11 1013.5 1012.8 0.0
27/04:30pm 31.3 26.3 -1.5 12 15.5 NE 15 26 8 14 1013.5 1012.8 0.0
27/04:00pm 31.7 27.1 -1.2 12 15.7 NNE 13 20 7 11 1013.6 1012.9 0.0

Other Formats:

Comma delimited format used in spreadsheet applications
http://www.bom.gov.au/fwo/IDW60801/IDW60801.95317.axf

JavaScript Object Notation format (JSON) in row-major order
http://www.bom.gov.au/fwo/IDW60801/IDW60801.95317.json